sensor_id;sensor_type;location;lat;lon;timestamp;temperature;humidity
36594;DHT22;22603;47.900;8.146;2022-12-10T00:02:00;-0.20;99.90
36594;DHT22;22603;47.900;8.146;2022-12-10T00:04:47;-0.20;99.90
36594;DHT22;22603;47.900;8.146;2022-12-10T00:07:35;-0.30;99.90
36594;DHT22;22603;47.900;8.146;2022-12-10T00:10:21;-0.30;99.90
36594;DHT22;22603;47.900;8.146;2022-12-10T00:13:10;-0.30;99.90
36594;DHT22;22603;47.900;8.146;2022-12-10T00:15:59;-0.30;99.90
36594;DHT22;22603;47.900;8.146;2022-12-10T00:18:47;-0.20;99.90
36594;DHT22;22603;47.900;8.146;2022-12-10T00:21:35;-0.30;99.90
36594;DHT22;22603;47.900;8.146;2022-12-10T00:24:22;-0.20;99.90
36594;DHT22;22603;47.900;8.146;2022-12-10T00:27:09;-0.10;99.90
36594;DHT22;22603;47.900;8.146;2022-12-10T00:29:58;-0.10;99.90
36594;DHT22;22603;47.900;8.146;2022-12-10T00:32:45;-0.10;99.90
36594;DHT22;22603;47.900;8.146;2022-12-10T00:35:35;-0.10;99.90
36594;DHT22;22603;47.900;8.146;2022-12-10T00:38:22;-0.10;99.90
36594;DHT22;22603;47.900;8.146;2022-12-10T00:41:10;-0.10;99.90
36594;DHT22;22603;47.900;8.146;2022-12-10T00:43:57;-0.10;99.90
36594;DHT22;22603;47.900;8.146;2022-12-10T00:46:46;-0.10;99.90
36594;DHT22;22603;47.900;8.146;2022-12-10T00:49:33;-0.10;99.90
36594;DHT22;22603;47.900;8.146;2022-12-10T00:52:20;0.00;99.90
36594;DHT22;22603;47.900;8.146;2022-12-10T00:55:08;-0.10;99.90
36594;DHT22;22603;47.900;8.146;2022-12-10T00:57:55;-0.10;99.90
36594;DHT22;22603;47.900;8.146;2022-12-10T01:00:42;-0.20;99.90
36594;DHT22;22603;47.900;8.146;2022-12-10T01:03:31;-0.20;99.90
36594;DHT22;22603;47.900;8.146;2022-12-10T01:06:20;-0.20;99.90
36594;DHT22;22603;47.900;8.146;2022-12-10T01:09:10;-0.20;99.90
36594;DHT22;22603;47.900;8.146;2022-12-10T01:12:01;-0.10;99.90
36594;DHT22;22603;47.900;8.146;2022-12-10T01:14:48;-0.10;99.90
36594;DHT22;22603;47.900;8.146;2022-12-10T01:17:36;-0.10;99.90
36594;DHT22;22603;47.900;8.146;2022-12-10T01:20:24;0.00;99.90
36594;DHT22;22603;47.900;8.146;2022-12-10T01:23:11;0.00;99.90
36594;DHT22;22603;47.900;8.146;2022-12-10T01:26:00;-0.10;99.90
36594;DHT22;22603;47.900;8.146;2022-12-10T01:28:48;-0.10;99.90
36594;DHT22;22603;47.900;8.146;2022-12-10T01:31:36;-0.10;99.90
36594;DHT22;22603;47.900;8.146;2022-12-10T01:34:24;0.00;99.90
36594;DHT22;22603;47.900;8.146;2022-12-10T01:37:13;0.00;99.90
36594;DHT22;22603;47.900;8.146;2022-12-10T01:40:00;0.00;99.90
36594;DHT22;22603;47.900;8.146;2022-12-10T01:42:47;0.00;99.90
36594;DHT22;22603;47.900;8.146;2022-12-10T01:45:34;0.00;99.90
36594;DHT22;22603;47.900;8.146;2022-12-10T01:48:21;0.00;99.90
36594;DHT22;22603;47.900;8.146;2022-12-10T01:51:08;0.00;99.90
36594;DHT22;22603;47.900;8.146;2022-12-10T01:53:57;0.00;99.90
36594;DHT22;22603;47.900;8.146;2022-12-10T01:56:47;0.20;99.90
36594;DHT22;22603;47.900;8.146;2022-12-10T01:59:37;0.00;99.90
36594;DHT22;22603;47.900;8.146;2022-12-10T02:02:32;0.00;99.90
36594;DHT22;22603;47.900;8.146;2022-12-10T02:05:25;0.00;99.90
36594;DHT22;22603;47.900;8.146;2022-12-10T02:08:19;0.10;99.90
36594;DHT22;22603;47.900;8.146;2022-12-10T02:11:14;0.00;99.90
36594;DHT22;22603;47.900;8.146;2022-12-10T02:14:15;0.00;99.90
36594;DHT22;22603;47.900;8.146;2022-12-10T02:17:07;0.00;99.90
36594;DHT22;22603;47.900;8.146;2022-12-10T02:20:02;0.00;99.90
36594;DHT22;22603;47.900;8.146;2022-12-10T02:22:56;0.00;99.90
36594;DHT22;22603;47.900;8.146;2022-12-10T02:25:49;0.00;99.90
36594;DHT22;22603;47.900;8.146;2022-12-10T02:28:42;0.00;99.90
36594;DHT22;22603;47.900;8.146;2022-12-10T02:31:33;0.00;99.90
36594;DHT22;22603;47.900;8.146;2022-12-10T02:34:23;-0.10;99.90
36594;DHT22;22603;47.900;8.146;2022-12-10T02:37:17;-0.20;99.90
36594;DHT22;22603;47.900;8.146;2022-12-10T02:40:09;-0.30;99.90
36594;DHT22;22603;47.900;8.146;2022-12-10T02:42:58;-0.30;99.90
36594;DHT22;22603;47.900;8.146;2022-12-10T02:45:46;-0.30;99.90
36594;DHT22;22603;47.900;8.146;2022-12-10T02:48:35;-0.30;99.90
36594;DHT22;22603;47.900;8.146;2022-12-10T02:51:23;-0.30;99.90
36594;DHT22;22603;47.900;8.146;2022-12-10T02:54:38;-0.30;99.90
36594;DHT22;22603;47.900;8.146;2022-12-10T02:57:30;-0.30;99.90
36594;DHT22;22603;47.900;8.146;2022-12-10T03:00:20;-0.30;99.90
36594;DHT22;22603;47.900;8.146;2022-12-10T03:03:16;-0.30;99.90
36594;DHT22;22603;47.900;8.146;2022-12-10T03:06:16;-0.30;99.90
36594;DHT22;22603;47.900;8.146;2022-12-10T03:09:07;-0.40;99.90
36594;DHT22;22603;47.900;8.146;2022-12-10T03:12:01;-0.40;99.90
36594;DHT22;22603;47.900;8.146;2022-12-10T03:14:50;-0.30;99.90
36594;DHT22;22603;47.900;8.146;2022-12-10T03:17:39;-0.40;99.90
36594;DHT22;22603;47.900;8.146;2022-12-10T03:20:27;-0.40;99.90
36594;DHT22;22603;47.900;8.146;2022-12-10T03:23:18;-0.40;99.90
36594;DHT22;22603;47.900;8.146;2022-12-10T03:26:06;-0.40;99.90
36594;DHT22;22603;47.900;8.146;2022-12-10T03:28:59;-0.30;99.90
36594;DHT22;22603;47.900;8.146;2022-12-10T03:31:48;-0.40;99.90
36594;DHT22;22603;47.900;8.146;2022-12-10T03:34:37;-0.50;99.90
36594;DHT22;22603;47.900;8.146;2022-12-10T03:37:25;-0.50;99.90
36594;DHT22;22603;47.900;8.146;2022-12-10T03:40:16;-0.50;99.90
36594;DHT22;22603;47.900;8.146;2022-12-10T03:43:04;-0.60;99.90
36594;DHT22;22603;47.900;8.146;2022-12-10T03:45:51;-0.60;99.90
36594;DHT22;22603;47.900;8.146;2022-12-10T03:48:38;-0.50;99.90
36594;DHT22;22603;47.900;8.146;2022-12-10T03:51:26;-0.50;99.90
36594;DHT22;22603;47.900;8.146;2022-12-10T03:54:13;-0.60;99.90
36594;DHT22;22603;47.900;8.146;2022-12-10T03:57:01;-0.60;99.90
36594;DHT22;22603;47.900;8.146;2022-12-10T03:59:48;-0.60;99.90
36594;DHT22;22603;47.900;8.146;2022-12-10T04:02:35;-0.60;99.90
36594;DHT22;22603;47.900;8.146;2022-12-10T04:05:25;-0.60;99.90
36594;DHT22;22603;47.900;8.146;2022-12-10T04:08:12;-0.60;99.90
36594;DHT22;22603;47.900;8.146;2022-12-10T04:11:03;-0.60;99.90
36594;DHT22;22603;47.900;8.146;2022-12-10T04:13:52;-0.60;99.90
36594;DHT22;22603;47.900;8.146;2022-12-10T04:16:56;-0.60;99.90
36594;DHT22;22603;47.900;8.146;2022-12-10T04:19:44;-0.50;99.90
36594;DHT22;22603;47.900;8.146;2022-12-10T04:22:31;-0.50;99.90
36594;DHT22;22603;47.900;8.146;2022-12-10T04:25:36;-0.50;99.90
36594;DHT22;22603;47.900;8.146;2022-12-10T04:28:40;-0.50;99.90
36594;DHT22;22603;47.900;8.146;2022-12-10T04:31:28;-0.40;99.90
36594;DHT22;22603;47.900;8.146;2022-12-10T04:34:15;-0.40;99.90
36594;DHT22;22603;47.900;8.146;2022-12-10T04:37:04;-0.50;99.90
36594;DHT22;22603;47.900;8.146;2022-12-10T04:39:51;-0.50;99.90
36594;DHT22;22603;47.900;8.146;2022-12-10T04:42:38;-0.50;99.90
36594;DHT22;22603;47.900;8.146;2022-12-10T04:45:25;-0.60;99.90
36594;DHT22;22603;47.900;8.146;2022-12-10T04:48:14;-0.60;99.90
36594;DHT22;22603;47.900;8.146;2022-12-10T04:51:01;-0.60;99.90
36594;DHT22;22603;47.900;8.146;2022-12-10T04:53:48;-0.70;99.90
36594;DHT22;22603;47.900;8.146;2022-12-10T04:56:35;-0.70;99.90
36594;DHT22;22603;47.900;8.146;2022-12-10T04:59:23;-0.70;99.90
36594;DHT22;22603;47.900;8.146;2022-12-10T05:02:10;-0.70;99.90
36594;DHT22;22603;47.900;8.146;2022-12-10T05:04:59;-0.70;99.90
36594;DHT22;22603;47.900;8.146;2022-12-10T05:07:46;-0.60;99.90
36594;DHT22;22603;47.900;8.146;2022-12-10T05:10:34;-0.70;99.90
36594;DHT22;22603;47.900;8.146;2022-12-10T05:13:21;-0.60;99.90
36594;DHT22;22603;47.900;8.146;2022-12-10T05:16:10;-0.70;99.90
36594;DHT22;22603;47.900;8.146;2022-12-10T05:18:58;-0.70;99.90
36594;DHT22;22603;47.900;8.146;2022-12-10T05:21:47;-0.70;99.90
36594;DHT22;22603;47.900;8.146;2022-12-10T05:24:52;-0.70;99.90
36594;DHT22;22603;47.900;8.146;2022-12-10T05:27:39;-0.80;99.90
36594;DHT22;22603;47.900;8.146;2022-12-10T05:30:27;-0.80;99.90
36594;DHT22;22603;47.900;8.146;2022-12-10T05:33:14;-0.80;99.90
36594;DHT22;22603;47.900;8.146;2022-12-10T05:36:03;-0.80;99.90
36594;DHT22;22603;47.900;8.146;2022-12-10T05:38:53;-0.80;99.90
36594;DHT22;22603;47.900;8.146;2022-12-10T05:41:42;-0.80;99.90
36594;DHT22;22603;47.900;8.146;2022-12-10T05:44:31;-0.90;99.90
36594;DHT22;22603;47.900;8.146;2022-12-10T05:47:18;-0.80;99.90
36594;DHT22;22603;47.900;8.146;2022-12-10T05:50:06;-0.80;99.90
36594;DHT22;22603;47.900;8.146;2022-12-10T05:52:53;-0.80;99.90
36594;DHT22;22603;47.900;8.146;2022-12-10T05:55:42;-0.70;99.90
36594;DHT22;22603;47.900;8.146;2022-12-10T05:58:29;-0.80;99.90
36594;DHT22;22603;47.900;8.146;2022-12-10T06:01:18;-0.80;99.90
36594;DHT22;22603;47.900;8.146;2022-12-10T06:04:06;-0.80;99.90
36594;DHT22;22603;47.900;8.146;2022-12-10T06:06:53;-0.80;99.90
36594;DHT22;22603;47.900;8.146;2022-12-10T06:09:39;-0.90;99.90
36594;DHT22;22603;47.900;8.146;2022-12-10T06:12:28;-0.90;99.90
36594;DHT22;22603;47.900;8.146;2022-12-10T06:15:15;-0.90;99.90
36594;DHT22;22603;47.900;8.146;2022-12-10T06:18:03;-0.90;99.90
36594;DHT22;22603;47.900;8.146;2022-12-10T06:20:50;-0.90;99.90
36594;DHT22;22603;47.900;8.146;2022-12-10T06:23:38;-0.90;99.90
36594;DHT22;22603;47.900;8.146;2022-12-10T06:26:25;-0.90;99.90
36594;DHT22;22603;47.900;8.146;2022-12-10T06:29:14;-0.90;99.90
36594;DHT22;22603;47.900;8.146;2022-12-10T06:32:01;-0.90;99.90
36594;DHT22;22603;47.900;8.146;2022-12-10T06:34:48;-1.00;99.90
36594;DHT22;22603;47.900;8.146;2022-12-10T06:37:35;-1.00;99.90
36594;DHT22;22603;47.900;8.146;2022-12-10T06:40:23;-1.10;99.90
36594;DHT22;22603;47.900;8.146;2022-12-10T06:43:10;-1.10;99.90
36594;DHT22;22603;47.900;8.146;2022-12-10T06:46:04;-1.10;99.90
36594;DHT22;22603;47.900;8.146;2022-12-10T06:48:51;-1.10;99.90
36594;DHT22;22603;47.900;8.146;2022-12-10T06:51:38;-1.10;99.90
36594;DHT22;22603;47.900;8.146;2022-12-10T06:54:25;-1.10;99.90
36594;DHT22;22603;47.900;8.146;2022-12-10T06:57:13;-1.20;99.90
36594;DHT22;22603;47.900;8.146;2022-12-10T07:00:00;-1.20;99.90
36594;DHT22;22603;47.900;8.146;2022-12-10T07:02:49;-1.20;99.90
36594;DHT22;22603;47.900;8.146;2022-12-10T07:05:36;-1.20;99.90
36594;DHT22;22603;47.900;8.146;2022-12-10T07:08:23;-1.30;99.90
36594;DHT22;22603;47.900;8.146;2022-12-10T07:11:12;-1.30;99.90
36594;DHT22;22603;47.900;8.146;2022-12-10T07:13:59;-1.30;99.90
36594;DHT22;22603;47.900;8.146;2022-12-10T07:16:46;-1.40;99.90
36594;DHT22;22603;47.900;8.146;2022-12-10T07:19:35;-1.40;99.90
36594;DHT22;22603;47.900;8.146;2022-12-10T07:22:22;-1.40;99.90
36594;DHT22;22603;47.900;8.146;2022-12-10T07:25:09;-1.30;99.90
36594;DHT22;22603;47.900;8.146;2022-12-10T07:27:56;-1.40;99.90
36594;DHT22;22603;47.900;8.146;2022-12-10T07:30:44;-1.40;99.90
36594;DHT22;22603;47.900;8.146;2022-12-10T07:33:32;-1.30;99.90
36594;DHT22;22603;47.900;8.146;2022-12-10T07:36:21;-1.30;99.90
36594;DHT22;22603;47.900;8.146;2022-12-10T07:39:10;-1.30;99.90
36594;DHT22;22603;47.900;8.146;2022-12-10T07:42:02;-1.30;99.90
36594;DHT22;22603;47.900;8.146;2022-12-10T07:44:50;-1.30;99.90
36594;DHT22;22603;47.900;8.146;2022-12-10T07:47:37;-1.20;99.90
36594;DHT22;22603;47.900;8.146;2022-12-10T07:50:24;-1.30;99.90
36594;DHT22;22603;47.900;8.146;2022-12-10T07:53:13;-1.20;99.90
36594;DHT22;22603;47.900;8.146;2022-12-10T07:56:00;-1.20;99.90
36594;DHT22;22603;47.900;8.146;2022-12-10T07:58:48;-1.10;99.90
36594;DHT22;22603;47.900;8.146;2022-12-10T08:01:36;-1.10;99.90
36594;DHT22;22603;47.900;8.146;2022-12-10T08:04:22;-1.10;99.90
36594;DHT22;22603;47.900;8.146;2022-12-10T08:07:09;-1.10;99.90
36594;DHT22;22603;47.900;8.146;2022-12-10T08:09:58;-1.00;99.90
36594;DHT22;22603;47.900;8.146;2022-12-10T08:12:45;-1.00;99.90
36594;DHT22;22603;47.900;8.146;2022-12-10T08:15:32;-1.00;99.90
36594;DHT22;22603;47.900;8.146;2022-12-10T08:18:19;-1.00;99.90
36594;DHT22;22603;47.900;8.146;2022-12-10T08:21:10;-1.00;99.90
36594;DHT22;22603;47.900;8.146;2022-12-10T08:24:00;-1.00;99.90
36594;DHT22;22603;47.900;8.146;2022-12-10T08:26:48;-1.00;99.90
36594;DHT22;22603;47.900;8.146;2022-12-10T08:29:35;-1.00;99.90
36594;DHT22;22603;47.900;8.146;2022-12-10T08:32:24;-1.00;99.90
36594;DHT22;22603;47.900;8.146;2022-12-10T08:35:12;-1.00;99.90
36594;DHT22;22603;47.900;8.146;2022-12-10T08:37:59;-1.00;99.90
36594;DHT22;22603;47.900;8.146;2022-12-10T08:40:46;-0.90;99.90
36594;DHT22;22603;47.900;8.146;2022-12-10T08:43:34;-1.00;99.90
36594;DHT22;22603;47.900;8.146;2022-12-10T08:46:22;-1.00;99.90
36594;DHT22;22603;47.900;8.146;2022-12-10T08:49:11;-1.00;99.90
36594;DHT22;22603;47.900;8.146;2022-12-10T08:51:59;-0.90;99.90
36594;DHT22;22603;47.900;8.146;2022-12-10T08:54:46;-0.90;99.90
36594;DHT22;22603;47.900;8.146;2022-12-10T08:57:33;-1.00;99.90
36594;DHT22;22603;47.900;8.146;2022-12-10T09:00:22;-0.90;99.90
36594;DHT22;22603;47.900;8.146;2022-12-10T09:03:09;-0.90;99.90
36594;DHT22;22603;47.900;8.146;2022-12-10T09:06:02;-0.90;99.90
36594;DHT22;22603;47.900;8.146;2022-12-10T09:08:49;-0.90;99.90
36594;DHT22;22603;47.900;8.146;2022-12-10T09:11:36;-0.80;99.90
36594;DHT22;22603;47.900;8.146;2022-12-10T09:14:23;-0.70;99.90
36594;DHT22;22603;47.900;8.146;2022-12-10T09:17:12;-0.70;99.90
36594;DHT22;22603;47.900;8.146;2022-12-10T09:19:59;-0.80;99.90
36594;DHT22;22603;47.900;8.146;2022-12-10T09:22:46;-0.80;99.90
36594;DHT22;22603;47.900;8.146;2022-12-10T09:25:33;-0.80;99.90
36594;DHT22;22603;47.900;8.146;2022-12-10T09:28:20;-0.70;99.90
36594;DHT22;22603;47.900;8.146;2022-12-10T09:31:09;-0.60;99.90
36594;DHT22;22603;47.900;8.146;2022-12-10T09:34:06;-0.50;99.90
36594;DHT22;22603;47.900;8.146;2022-12-10T09:36:53;-0.50;99.90
36594;DHT22;22603;47.900;8.146;2022-12-10T09:39:41;-0.30;99.90
36594;DHT22;22603;47.900;8.146;2022-12-10T09:42:34;-0.40;99.90
36594;DHT22;22603;47.900;8.146;2022-12-10T09:45:31;-0.40;99.90
36594;DHT22;22603;47.900;8.146;2022-12-10T09:48:24;-0.50;99.90
36594;DHT22;22603;47.900;8.146;2022-12-10T09:51:20;-0.40;99.90
36594;DHT22;22603;47.900;8.146;2022-12-10T09:54:17;-0.30;99.90
36594;DHT22;22603;47.900;8.146;2022-12-10T09:57:07;-0.20;99.90
36594;DHT22;22603;47.900;8.146;2022-12-10T10:00:00;-0.30;99.90
36594;DHT22;22603;47.900;8.146;2022-12-10T10:02:49;-0.10;99.90
36594;DHT22;22603;47.900;8.146;2022-12-10T10:05:40;-0.20;99.90
36594;DHT22;22603;47.900;8.146;2022-12-10T10:08:31;-0.20;99.90
36594;DHT22;22603;47.900;8.146;2022-12-10T10:11:22;-0.20;99.90
36594;DHT22;22603;47.900;8.146;2022-12-10T10:14:13;0.00;99.90
36594;DHT22;22603;47.900;8.146;2022-12-10T10:17:03;0.20;99.90
36594;DHT22;22603;47.900;8.146;2022-12-10T10:19:51;0.30;99.90
36594;DHT22;22603;47.900;8.146;2022-12-10T10:22:39;0.30;99.90
36594;DHT22;22603;47.900;8.146;2022-12-10T10:25:28;-0.10;99.90
36594;DHT22;22603;47.900;8.146;2022-12-10T10:28:21;-0.10;99.90
36594;DHT22;22603;47.900;8.146;2022-12-10T10:31:18;0.00;99.90
36594;DHT22;22603;47.900;8.146;2022-12-10T10:34:14;-0.20;99.90
36594;DHT22;22603;47.900;8.146;2022-12-10T10:37:03;-0.30;99.90
36594;DHT22;22603;47.900;8.146;2022-12-10T10:39:50;-0.30;99.90
36594;DHT22;22603;47.900;8.146;2022-12-10T10:42:51;-0.30;99.90
36594;DHT22;22603;47.900;8.146;2022-12-10T10:46:27;-0.40;99.90
36594;DHT22;22603;47.900;8.146;2022-12-10T10:49:44;-0.50;99.90
36594;DHT22;22603;47.900;8.146;2022-12-10T10:52:37;-0.80;99.90
36594;DHT22;22603;47.900;8.146;2022-12-10T10:55:38;-0.60;99.90
36594;DHT22;22603;47.900;8.146;2022-12-10T10:58:56;-0.60;99.90
36594;DHT22;22603;47.900;8.146;2022-12-10T11:01:47;-0.60;99.90
36594;DHT22;22603;47.900;8.146;2022-12-10T11:04:37;-0.60;99.90
36594;DHT22;22603;47.900;8.146;2022-12-10T11:07:34;-0.60;99.90
36594;DHT22;22603;47.900;8.146;2022-12-10T11:10:24;-0.70;99.90
36594;DHT22;22603;47.900;8.146;2022-12-10T11:13:20;-0.80;99.90
36594;DHT22;22603;47.900;8.146;2022-12-10T11:16:19;-0.70;99.90
36594;DHT22;22603;47.900;8.146;2022-12-10T11:19:19;-0.70;99.90
36594;DHT22;22603;47.900;8.146;2022-12-10T11:22:17;-0.60;99.90
36594;DHT22;22603;47.900;8.146;2022-12-10T11:25:11;-0.70;99.90
36594;DHT22;22603;47.900;8.146;2022-12-10T11:28:04;-0.80;99.90
36594;DHT22;22603;47.900;8.146;2022-12-10T11:30:58;-0.80;99.90
36594;DHT22;22603;47.900;8.146;2022-12-10T11:33:54;-0.80;99.90
36594;DHT22;22603;47.900;8.146;2022-12-10T11:36:54;-0.70;99.90
36594;DHT22;22603;47.900;8.146;2022-12-10T11:40:02;-0.60;99.90
36594;DHT22;22603;47.900;8.146;2022-12-10T11:42:58;-0.40;99.90
36594;DHT22;22603;47.900;8.146;2022-12-10T11:45:54;-0.30;99.90
36594;DHT22;22603;47.900;8.146;2022-12-10T11:48:55;-0.30;99.90
36594;DHT22;22603;47.900;8.146;2022-12-10T11:51:48;-0.30;99.90
36594;DHT22;22603;47.900;8.146;2022-12-10T11:54:52;-0.30;99.90
36594;DHT22;22603;47.900;8.146;2022-12-10T11:57:53;-0.40;99.90
36594;DHT22;22603;47.900;8.146;2022-12-10T12:00:47;-0.30;99.90
36594;DHT22;22603;47.900;8.146;2022-12-10T12:04:04;-0.30;99.90
36594;DHT22;22603;47.900;8.146;2022-12-10T12:10:21;-0.30;99.90
36594;DHT22;22603;47.900;8.146;2022-12-10T12:13:13;-0.30;99.90
36594;DHT22;22603;47.900;8.146;2022-12-10T12:16:05;-0.30;99.90
36594;DHT22;22603;47.900;8.146;2022-12-10T12:19:00;-0.30;99.90
36594;DHT22;22603;47.900;8.146;2022-12-10T12:21:50;-0.40;99.90
36594;DHT22;22603;47.900;8.146;2022-12-10T12:24:40;-0.50;99.90
36594;DHT22;22603;47.900;8.146;2022-12-10T12:27:34;-0.50;99.90
36594;DHT22;22603;47.900;8.146;2022-12-10T12:30:22;-0.80;99.90
36594;DHT22;22603;47.900;8.146;2022-12-10T12:33:12;-0.90;99.90
36594;DHT22;22603;47.900;8.146;2022-12-10T12:36:08;-0.90;99.90
36594;DHT22;22603;47.900;8.146;2022-12-10T12:39:01;-0.80;99.90
36594;DHT22;22603;47.900;8.146;2022-12-10T12:41:54;-0.90;99.90
36594;DHT22;22603;47.900;8.146;2022-12-10T12:44:56;-1.00;99.90
36594;DHT22;22603;47.900;8.146;2022-12-10T12:47:48;-1.00;99.90
36594;DHT22;22603;47.900;8.146;2022-12-10T12:50:47;-1.10;99.90
36594;DHT22;22603;47.900;8.146;2022-12-10T12:53:36;-1.00;99.90
36594;DHT22;22603;47.900;8.146;2022-12-10T12:56:29;-1.10;99.90
36594;DHT22;22603;47.900;8.146;2022-12-10T12:59:31;-1.10;99.90
36594;DHT22;22603;47.900;8.146;2022-12-10T13:02:36;-1.10;99.90
36594;DHT22;22603;47.900;8.146;2022-12-10T13:05:30;-1.10;99.90
36594;DHT22;22603;47.900;8.146;2022-12-10T13:08:43;-1.00;99.90
36594;DHT22;22603;47.900;8.146;2022-12-10T13:11:34;-1.00;99.90
36594;DHT22;22603;47.900;8.146;2022-12-10T13:14:31;-0.90;99.90
36594;DHT22;22603;47.900;8.146;2022-12-10T13:17:27;-1.00;99.90
36594;DHT22;22603;47.900;8.146;2022-12-10T13:20:30;-0.90;99.90
36594;DHT22;22603;47.900;8.146;2022-12-10T13:23:30;-1.00;99.90
36594;DHT22;22603;47.900;8.146;2022-12-10T13:26:26;-1.00;99.90
36594;DHT22;22603;47.900;8.146;2022-12-10T13:29:24;-1.00;99.90
36594;DHT22;22603;47.900;8.146;2022-12-10T13:32:15;-1.10;99.90
36594;DHT22;22603;47.900;8.146;2022-12-10T13:35:25;-1.10;99.90
36594;DHT22;22603;47.900;8.146;2022-12-10T13:38:21;-1.00;99.90
36594;DHT22;22603;47.900;8.146;2022-12-10T13:41:10;-1.10;99.90
36594;DHT22;22603;47.900;8.146;2022-12-10T13:44:45;-1.10;99.90
36594;DHT22;22603;47.900;8.146;2022-12-10T13:47:42;-1.00;99.90
36594;DHT22;22603;47.900;8.146;2022-12-10T13:50:36;-1.10;99.90
36594;DHT22;22603;47.900;8.146;2022-12-10T13:53:33;-1.10;99.90
36594;DHT22;22603;47.900;8.146;2022-12-10T13:56:28;-1.20;99.90
36594;DHT22;22603;47.900;8.146;2022-12-10T13:59:23;-1.20;99.90
36594;DHT22;22603;47.900;8.146;2022-12-10T14:02:36;-1.20;99.90
36594;DHT22;22603;47.900;8.146;2022-12-10T14:05:58;-1.20;99.90
36594;DHT22;22603;47.900;8.146;2022-12-10T14:09:02;-1.30;99.90
36594;DHT22;22603;47.900;8.146;2022-12-10T14:11:54;-1.40;99.90
36594;DHT22;22603;47.900;8.146;2022-12-10T14:14:45;-1.40;99.90
36594;DHT22;22603;47.900;8.146;2022-12-10T14:17:38;-1.40;99.90
36594;DHT22;22603;47.900;8.146;2022-12-10T14:20:26;-1.50;99.90
36594;DHT22;22603;47.900;8.146;2022-12-10T14:23:23;-1.60;99.90
36594;DHT22;22603;47.900;8.146;2022-12-10T14:26:30;-1.60;99.90
36594;DHT22;22603;47.900;8.146;2022-12-10T14:29:20;-1.60;99.90
36594;DHT22;22603;47.900;8.146;2022-12-10T14:32:15;-1.60;99.90
36594;DHT22;22603;47.900;8.146;2022-12-10T14:35:07;-1.60;99.90
36594;DHT22;22603;47.900;8.146;2022-12-10T14:37:58;-1.70;99.90
36594;DHT22;22603;47.900;8.146;2022-12-10T14:40:47;-1.70;99.90
36594;DHT22;22603;47.900;8.146;2022-12-10T14:43:37;-1.70;99.90
36594;DHT22;22603;47.900;8.146;2022-12-10T14:46:27;-1.80;99.90
36594;DHT22;22603;47.900;8.146;2022-12-10T14:49:18;-1.70;99.90
36594;DHT22;22603;47.900;8.146;2022-12-10T14:52:12;-1.80;99.90
36594;DHT22;22603;47.900;8.146;2022-12-10T14:55:00;-1.80;99.90
36594;DHT22;22603;47.900;8.146;2022-12-10T14:57:50;-1.90;99.90
36594;DHT22;22603;47.900;8.146;2022-12-10T15:00:40;-1.90;99.90
36594;DHT22;22603;47.900;8.146;2022-12-10T15:03:30;-1.90;99.90
36594;DHT22;22603;47.900;8.146;2022-12-10T15:06:19;-1.90;99.90
36594;DHT22;22603;47.900;8.146;2022-12-10T15:09:14;-2.00;99.90
36594;DHT22;22603;47.900;8.146;2022-12-10T15:12:02;-2.00;99.90
36594;DHT22;22603;47.900;8.146;2022-12-10T15:14:49;-2.00;99.90
36594;DHT22;22603;47.900;8.146;2022-12-10T15:17:39;-1.90;99.90
36594;DHT22;22603;47.900;8.146;2022-12-10T15:20:29;-1.90;99.90
36594;DHT22;22603;47.900;8.146;2022-12-10T15:23:19;-1.80;99.90
36594;DHT22;22603;47.900;8.146;2022-12-10T15:26:15;-1.90;99.90
36594;DHT22;22603;47.900;8.146;2022-12-10T15:29:33;-1.90;99.90
36594;DHT22;22603;47.900;8.146;2022-12-10T15:32:23;-1.90;99.90
36594;DHT22;22603;47.900;8.146;2022-12-10T15:35:13;-1.90;99.90
36594;DHT22;22603;47.900;8.146;2022-12-10T15:38:03;-1.90;99.90
36594;DHT22;22603;47.900;8.146;2022-12-10T15:40:50;-1.90;99.90
36594;DHT22;22603;47.900;8.146;2022-12-10T15:43:51;-1.90;99.90
36594;DHT22;22603;47.900;8.146;2022-12-10T15:46:47;-1.90;99.90
36594;DHT22;22603;47.900;8.146;2022-12-10T15:49:34;-1.90;99.90
36594;DHT22;22603;47.900;8.146;2022-12-10T15:52:23;-2.00;99.90
36594;DHT22;22603;47.900;8.146;2022-12-10T15:55:11;-1.90;99.90
36594;DHT22;22603;47.900;8.146;2022-12-10T15:57:58;-1.90;99.90
36594;DHT22;22603;47.900;8.146;2022-12-10T16:00:47;-1.90;99.90
36594;DHT22;22603;47.900;8.146;2022-12-10T16:03:34;-2.00;99.90
36594;DHT22;22603;47.900;8.146;2022-12-10T16:06:22;-2.00;99.90
36594;DHT22;22603;47.900;8.146;2022-12-10T16:09:10;-2.00;99.90
36594;DHT22;22603;47.900;8.146;2022-12-10T16:11:57;-2.10;99.90
36594;DHT22;22603;47.900;8.146;2022-12-10T16:14:48;-2.00;99.90
36594;DHT22;22603;47.900;8.146;2022-12-10T16:17:37;-2.00;99.90
36594;DHT22;22603;47.900;8.146;2022-12-10T16:20:26;-2.00;99.90
36594;DHT22;22603;47.900;8.146;2022-12-10T16:23:14;-2.10;99.90
36594;DHT22;22603;47.900;8.146;2022-12-10T16:26:01;-2.10;99.90
36594;DHT22;22603;47.900;8.146;2022-12-10T16:28:49;-2.00;99.90
36594;DHT22;22603;47.900;8.146;2022-12-10T16:31:37;-2.00;99.90
36594;DHT22;22603;47.900;8.146;2022-12-10T16:34:26;-2.10;99.90
36594;DHT22;22603;47.900;8.146;2022-12-10T16:37:13;-2.00;99.90
36594;DHT22;22603;47.900;8.146;2022-12-10T16:40:00;-2.00;99.90
36594;DHT22;22603;47.900;8.146;2022-12-10T16:42:47;-2.00;99.90
36594;DHT22;22603;47.900;8.146;2022-12-10T16:45:37;-2.10;99.90
36594;DHT22;22603;47.900;8.146;2022-12-10T16:48:25;-2.10;99.90
36594;DHT22;22603;47.900;8.146;2022-12-10T16:51:16;-2.10;99.90
36594;DHT22;22603;47.900;8.146;2022-12-10T16:54:07;-2.10;99.90
36594;DHT22;22603;47.900;8.146;2022-12-10T16:56:55;-2.10;99.90
36594;DHT22;22603;47.900;8.146;2022-12-10T16:59:41;-2.10;99.90
36594;DHT22;22603;47.900;8.146;2022-12-10T17:02:28;-2.20;99.90
36594;DHT22;22603;47.900;8.146;2022-12-10T17:05:18;-2.20;99.90
36594;DHT22;22603;47.900;8.146;2022-12-10T17:08:09;-2.30;99.90
36594;DHT22;22603;47.900;8.146;2022-12-10T17:10:57;-2.30;99.90
36594;DHT22;22603;47.900;8.146;2022-12-10T17:14:02;-2.20;99.90
36594;DHT22;22603;47.900;8.146;2022-12-10T17:16:52;-2.20;99.90
36594;DHT22;22603;47.900;8.146;2022-12-10T17:19:40;-2.20;99.90
36594;DHT22;22603;47.900;8.146;2022-12-10T17:22:27;-2.20;99.90
36594;DHT22;22603;47.900;8.146;2022-12-10T17:25:17;-2.20;99.90
36594;DHT22;22603;47.900;8.146;2022-12-10T17:28:04;-2.30;99.90
36594;DHT22;22603;47.900;8.146;2022-12-10T17:30:51;-2.30;99.90
36594;DHT22;22603;47.900;8.146;2022-12-10T17:33:38;-2.30;99.90
36594;DHT22;22603;47.900;8.146;2022-12-10T17:36:25;-2.30;99.90
36594;DHT22;22603;47.900;8.146;2022-12-10T17:39:13;-2.30;99.90
36594;DHT22;22603;47.900;8.146;2022-12-10T17:42:08;-2.30;99.90
36594;DHT22;22603;47.900;8.146;2022-12-10T17:44:56;-2.30;99.90
36594;DHT22;22603;47.900;8.146;2022-12-10T17:47:43;-2.30;99.90
36594;DHT22;22603;47.900;8.146;2022-12-10T17:50:32;-2.40;99.90
36594;DHT22;22603;47.900;8.146;2022-12-10T17:53:19;-2.40;99.90
36594;DHT22;22603;47.900;8.146;2022-12-10T17:56:13;-2.40;99.90
36594;DHT22;22603;47.900;8.146;2022-12-10T17:59:02;-2.40;99.90
36594;DHT22;22603;47.900;8.146;2022-12-10T18:01:50;-2.40;99.90
36594;DHT22;22603;47.900;8.146;2022-12-10T18:04:37;-2.50;99.90
36594;DHT22;22603;47.900;8.146;2022-12-10T18:07:24;-2.40;99.90